sensor_id;sensor_type;location;lat;lon;timestamp;pressure;altitude;pressure_sealevel;temperature;humidity
59531;BME280;45349;48.692;8.186;2024-01-15T00:00:12;145805.22;;;-1.86;96.07
59531;BME280;45349;48.692;8.186;2024-01-15T00:02:39;145806.50;;;-1.86;95.78
59531;BME280;45349;48.692;8.186;2024-01-15T00:05:09;145794.13;;;-1.91;95.04
59531;BME280;45349;48.692;8.186;2024-01-15T00:07:35;145787.94;;;-1.94;95.92
59531;BME280;45349;48.692;8.186;2024-01-15T00:10:02;145785.47;;;-1.95;96.23
59531;BME280;45349;48.692;8.186;2024-01-15T00:12:29;145797.81;;;-1.89;96.64
59531;BME280;45349;48.692;8.186;2024-01-15T00:14:57;145797.81;;;-1.89;97.20
59531;BME280;45349;48.692;8.186;2024-01-15T00:17:24;145792.88;;;-1.91;96.57
59531;BME280;45349;48.692;8.186;2024-01-15T00:19:51;145801.56;;;-1.88;96.70
59531;BME280;45349;48.692;8.186;2024-01-15T00:22:18;145805.22;;;-1.86;96.32
59531;BME280;45349;48.692;8.186;2024-01-15T00:24:45;145807.69;;;-1.85;95.82
59531;BME280;45349;48.692;8.186;2024-01-15T00:27:11;145801.56;;;-1.88;97.16
59531;BME280;45349;48.692;8.186;2024-01-15T00:29:38;145804.03;;;-1.87;97.19
59531;BME280;45349;48.692;8.186;2024-01-15T00:32:06;145808.97;;;-1.85;97.73
59531;BME280;45349;48.692;8.186;2024-01-15T00:34:33;145812.63;;;-1.83;96.43
59531;BME280;45349;48.692;8.186;2024-01-15T00:36:59;145804.03;;;-1.87;97.55
59531;BME280;45349;48.692;8.186;2024-01-15T00:39:26;145810.16;;;-1.84;96.41
59531;BME280;45349;48.692;8.186;2024-01-15T00:41:52;145796.63;;;-1.90;96.28
59531;BME280;45349;48.692;8.186;2024-01-15T00:44:19;145802.75;;;-1.87;96.79
59531;BME280;45349;48.692;8.186;2024-01-15T00:46:46;145805.22;;;-1.86;97.75
59531;BME280;45349;48.692;8.186;2024-01-15T00:49:14;145818.84;;;-1.81;96.83
59531;BME280;45349;48.692;8.186;2024-01-15T00:51:40;145810.16;;;-1.84;97.57
59531;BME280;45349;48.692;8.186;2024-01-15T00:54:07;145802.75;;;-1.87;97.55
59531;BME280;45349;48.692;8.186;2024-01-15T00:56:34;145806.50;;;-1.86;97.59
59531;BME280;45349;48.692;8.186;2024-01-15T00:59:00;145824.97;;;-1.78;96.70
59531;BME280;45349;48.692;8.186;2024-01-15T01:01:27;145816.38;;;-1.82;96.47
59531;BME280;45349;48.692;8.186;2024-01-15T01:03:54;145827.44;;;-1.77;96.12
59531;BME280;45349;48.692;8.186;2024-01-15T01:06:22;145799.09;;;-1.89;96.79
59531;BME280;45349;48.692;8.186;2024-01-15T01:08:48;145820.03;;;-1.80;97.05
59531;BME280;45349;48.692;8.186;2024-01-15T01:11:15;145822.50;;;-1.79;96.83
59531;BME280;45349;48.692;8.186;2024-01-15T01:13:45;145832.38;;;-1.75;96.85
59531;BME280;45349;48.692;8.186;2024-01-15T01:16:12;145812.63;;;-1.83;96.86
59531;BME280;45349;48.692;8.186;2024-01-15T01:18:39;145810.16;;;-1.84;96.64
59531;BME280;45349;48.692;8.186;2024-01-15T01:21:05;145805.22;;;-1.86;96.07
59531;BME280;45349;48.692;8.186;2024-01-15T01:23:33;145797.81;;;-1.89;97.03
59531;BME280;45349;48.692;8.186;2024-01-15T01:26:00;145795.34;;;-1.90;96.76
59531;BME280;45349;48.692;8.186;2024-01-15T01:28:27;145795.34;;;-1.90;96.63
59531;BME280;45349;48.692;8.186;2024-01-15T01:30:54;145780.53;;;-1.97;96.02
59531;BME280;45349;48.692;8.186;2024-01-15T01:33:20;145762.06;;;-2.04;97.02
59531;BME280;45349;48.692;8.186;2024-01-15T01:35:47;145753.38;;;-2.08;98.38
59531;BME280;45349;48.692;8.186;2024-01-15T01:38:14;145760.78;;;-2.05;98.45
59531;BME280;45349;48.692;8.186;2024-01-15T01:40:42;145747.25;;;-2.11;99.02
59531;BME280;45349;48.692;8.186;2024-01-15T01:43:09;145750.91;;;-2.09;99.20
59531;BME280;45349;48.692;8.186;2024-01-15T01:45:36;145753.38;;;-2.08;99.39
59531;BME280;45349;48.692;8.186;2024-01-15T01:48:03;145762.06;;;-2.04;99.24
59531;BME280;45349;48.692;8.186;2024-01-15T01:50:30;145764.53;;;-2.03;98.78
59531;BME280;45349;48.692;8.186;2024-01-15T01:52:57;145770.66;;;-2.01;99.47
59531;BME280;45349;48.692;8.186;2024-01-15T01:55:27;145771.94;;;-2.00;99.99
59531;BME280;45349;48.692;8.186;2024-01-15T01:57:55;145778.06;;;-1.98;99.27
59531;BME280;45349;48.692;8.186;2024-01-15T02:00:22;145785.47;;;-1.95;99.73
59531;BME280;45349;48.692;8.186;2024-01-15T02:02:49;145791.69;;;-1.92;99.08
59531;BME280;45349;48.692;8.186;2024-01-15T02:05:18;145799.09;;;-1.89;98.52
59531;BME280;45349;48.692;8.186;2024-01-15T02:07:45;145791.69;;;-1.92;98.54
59531;BME280;45349;48.692;8.186;2024-01-15T02:10:12;145786.75;;;-1.94;99.41
59531;BME280;45349;48.692;8.186;2024-01-15T02:12:39;145810.16;;;-1.84;99.25
59531;BME280;45349;48.692;8.186;2024-01-15T02:15:07;145811.44;;;-1.84;99.54
59531;BME280;45349;48.692;8.186;2024-01-15T02:17:34;145810.16;;;-1.84;99.84
59531;BME280;45349;48.692;8.186;2024-01-15T02:20:00;145818.84;;;-1.81;98.97
59531;BME280;45349;48.692;8.186;2024-01-15T02:22:27;145804.03;;;-1.87;99.67
59531;BME280;45349;48.692;8.186;2024-01-15T02:24:55;145804.03;;;-1.87;100.00
59531;BME280;45349;48.692;8.186;2024-01-15T02:27:22;145806.50;;;-1.86;99.92
59531;BME280;45349;48.692;8.186;2024-01-15T02:29:48;145811.44;;;-1.84;100.00
59531;BME280;45349;48.692;8.186;2024-01-15T02:32:15;145817.56;;;-1.81;100.00
59531;BME280;45349;48.692;8.186;2024-01-15T02:34:42;145817.56;;;-1.81;100.00
59531;BME280;45349;48.692;8.186;2024-01-15T02:37:08;145826.25;;;-1.77;100.00
59531;BME280;45349;48.692;8.186;2024-01-15T02:39:35;145821.31;;;-1.80;100.00
59531;BME280;45349;48.692;8.186;2024-01-15T02:42:03;145826.25;;;-1.77;100.00
59531;BME280;45349;48.692;8.186;2024-01-15T02:44:30;145813.91;;;-1.83;100.00
59531;BME280;45349;48.692;8.186;2024-01-15T02:46:56;145817.56;;;-1.81;100.00
59531;BME280;45349;48.692;8.186;2024-01-15T02:49:22;145832.38;;;-1.75;100.00
59531;BME280;45349;48.692;8.186;2024-01-15T02:51:49;145841.06;;;-1.71;100.00
59531;BME280;45349;48.692;8.186;2024-01-15T02:54:15;145846.00;;;-1.69;100.00
59531;BME280;45349;48.692;8.186;2024-01-15T02:56:42;145858.34;;;-1.64;100.00
59531;BME280;45349;48.692;8.186;2024-01-15T02:59:10;145846.00;;;-1.69;100.00
59531;BME280;45349;48.692;8.186;2024-01-15T03:01:36;145850.94;;;-1.67;100.00
59531;BME280;45349;48.692;8.186;2024-01-15T03:04:03;145850.94;;;-1.67;100.00
59531;BME280;45349;48.692;8.186;2024-01-15T03:06:30;145853.41;;;-1.66;100.00
59531;BME280;45349;48.692;8.186;2024-01-15T03:08:56;145866.97;;;-1.60;100.00
59531;BME280;45349;48.692;8.186;2024-01-15T03:11:23;145864.50;;;-1.61;100.00
59531;BME280;45349;48.692;8.186;2024-01-15T03:13:50;145865.75;;;-1.61;100.00
59531;BME280;45349;48.692;8.186;2024-01-15T03:16:18;145884.25;;;-1.53;100.00
59531;BME280;45349;48.692;8.186;2024-01-15T03:18:46;145866.97;;;-1.60;100.00
59531;BME280;45349;48.692;8.186;2024-01-15T03:21:12;145869.44;;;-1.59;100.00
59531;BME280;45349;48.692;8.186;2024-01-15T03:23:39;145880.50;;;-1.55;100.00
59531;BME280;45349;48.692;8.186;2024-01-15T03:26:05;145881.78;;;-1.54;100.00
59531;BME280;45349;48.692;8.186;2024-01-15T03:28:32;145879.31;;;-1.55;100.00
59531;BME280;45349;48.692;8.186;2024-01-15T03:30:59;145880.50;;;-1.55;100.00
59531;BME280;45349;48.692;8.186;2024-01-15T03:33:26;145908.94;;;-1.43;100.00
59531;BME280;45349;48.692;8.186;2024-01-15T03:35:53;145899.06;;;-1.47;100.00
59531;BME280;45349;48.692;8.186;2024-01-15T03:38:20;145913.88;;;-1.41;100.00
59531;BME280;45349;48.692;8.186;2024-01-15T03:40:46;145900.28;;;-1.46;100.00
59531;BME280;45349;48.692;8.186;2024-01-15T03:43:13;145897.81;;;-1.48;100.00
59531;BME280;45349;48.692;8.186;2024-01-15T03:45:39;145902.75;;;-1.45;100.00
59531;BME280;45349;48.692;8.186;2024-01-15T03:48:06;145897.81;;;-1.48;100.00
59531;BME280;45349;48.692;8.186;2024-01-15T03:50:34;145887.91;;;-1.52;100.00
59531;BME280;45349;48.692;8.186;2024-01-15T03:53:01;145894.13;;;-1.49;100.00
59531;BME280;45349;48.692;8.186;2024-01-15T03:55:27;145896.59;;;-1.48;100.00
59531;BME280;45349;48.692;8.186;2024-01-15T03:57:54;145897.81;;;-1.48;100.00
59531;BME280;45349;48.692;8.186;2024-01-15T04:03:50;145906.47;;;-1.44;100.00
59531;BME280;45349;48.692;8.186;2024-01-15T04:06:18;145901.53;;;-1.46;100.00
59531;BME280;45349;48.692;8.186;2024-01-15T04:08:45;145899.06;;;-1.47;100.00
59531;BME280;45349;48.692;8.186;2024-01-15T04:11:12;145906.47;;;-1.44;100.00
59531;BME280;45349;48.692;8.186;2024-01-15T04:13:39;145901.53;;;-1.46;100.00
59531;BME280;45349;48.692;8.186;2024-01-15T04:16:05;145905.22;;;-1.44;100.00
59531;BME280;45349;48.692;8.186;2024-01-15T04:18:32;145912.63;;;-1.41;100.00
59531;BME280;45349;48.692;8.186;2024-01-15T04:20:58;145928.69;;;-1.35;100.00
59531;BME280;45349;48.692;8.186;2024-01-15T04:23:26;145926.22;;;-1.36;100.00
59531;BME280;45349;48.692;8.186;2024-01-15T04:25:53;145936.09;;;-1.31;100.00
59531;BME280;45349;48.692;8.186;2024-01-15T04:28:20;145946.00;;;-1.27;100.00
59531;BME280;45349;48.692;8.186;2024-01-15T04:30:46;145957.06;;;-1.23;100.00
59531;BME280;45349;48.692;8.186;2024-01-15T04:33:13;145957.06;;;-1.23;100.00
59531;BME280;45349;48.692;8.186;2024-01-15T04:35:40;145962.03;;;-1.21;100.00
59531;BME280;45349;48.692;8.186;2024-01-15T04:38:06;145963.28;;;-1.20;100.00
59531;BME280;45349;48.692;8.186;2024-01-15T04:40:34;145973.16;;;-1.16;100.00
59531;BME280;45349;48.692;8.186;2024-01-15T04:43:01;145986.72;;;-1.10;100.00
59531;BME280;45349;48.692;8.186;2024-01-15T04:45:27;145976.84;;;-1.14;100.00
59531;BME280;45349;48.692;8.186;2024-01-15T04:47:55;145984.25;;;-1.11;99.88
59531;BME280;45349;48.692;8.186;2024-01-15T04:50:23;145987.97;;;-1.10;100.00
59531;BME280;45349;48.692;8.186;2024-01-15T04:52:49;145990.44;;;-1.09;99.20
59531;BME280;45349;48.692;8.186;2024-01-15T04:55:16;145981.78;;;-1.12;100.00
59531;BME280;45349;48.692;8.186;2024-01-15T04:57:44;145979.31;;;-1.13;100.00
59531;BME280;45349;48.692;8.186;2024-01-15T05:00:12;145984.25;;;-1.11;100.00
59531;BME280;45349;48.692;8.186;2024-01-15T05:02:39;145978.09;;;-1.14;100.00
59531;BME280;45349;48.692;8.186;2024-01-15T05:05:06;145979.31;;;-1.13;100.00
59531;BME280;45349;48.692;8.186;2024-01-15T05:07:32;145975.63;;;-1.15;99.76
59531;BME280;45349;48.692;8.186;2024-01-15T05:09:59;145973.16;;;-1.16;99.79
59531;BME280;45349;48.692;8.186;2024-01-15T05:12:28;145985.50;;;-1.11;99.47
59531;BME280;45349;48.692;8.186;2024-01-15T05:14:56;145978.09;;;-1.14;99.34
59531;BME280;45349;48.692;8.186;2024-01-15T05:17:22;145978.09;;;-1.14;99.83
59531;BME280;45349;48.692;8.186;2024-01-15T05:19:49;145983.03;;;-1.12;98.86
59531;BME280;45349;48.692;8.186;2024-01-15T05:22:16;145987.97;;;-1.10;98.82
59531;BME280;45349;48.692;8.186;2024-01-15T05:24:42;145984.25;;;-1.11;97.52
59531;BME280;45349;48.692;8.186;2024-01-15T05:27:09;145991.66;;;-1.08;96.16
59531;BME280;45349;48.692;8.186;2024-01-15T05:29:35;145996.59;;;-1.06;95.98
59531;BME280;45349;48.692;8.186;2024-01-15T05:32:03;146004.00;;;-1.03;96.51
59531;BME280;45349;48.692;8.186;2024-01-15T05:34:30;146004.00;;;-1.03;96.46
59531;BME280;45349;48.692;8.186;2024-01-15T05:36:57;146010.16;;;-1.00;95.56
59531;BME280;45349;48.692;8.186;2024-01-15T05:39:23;146013.91;;;-0.99;95.06
59531;BME280;45349;48.692;8.186;2024-01-15T05:41:50;146008.97;;;-1.01;95.13
59531;BME280;45349;48.692;8.186;2024-01-15T05:44:17;146025.00;;;-0.94;94.56
59531;BME280;45349;48.692;8.186;2024-01-15T05:46:43;146021.31;;;-0.96;94.58
59531;BME280;45349;48.692;8.186;2024-01-15T05:49:11;146038.59;;;-0.88;93.13
59531;BME280;45349;48.692;8.186;2024-01-15T05:51:38;146042.28;;;-0.87;92.67
59531;BME280;45349;48.692;8.186;2024-01-15T05:54:04;146042.28;;;-0.87;92.13
59531;BME280;45349;48.692;8.186;2024-01-15T05:56:31;146053.44;;;-0.82;91.76
59531;BME280;45349;48.692;8.186;2024-01-15T05:58:58;146053.44;;;-0.82;91.20
59531;BME280;45349;48.692;8.186;2024-01-15T06:01:27;146064.53;;;-0.78;89.56
59531;BME280;45349;48.692;8.186;2024-01-15T06:03:54;146060.84;;;-0.79;89.85
59531;BME280;45349;48.692;8.186;2024-01-15T06:06:22;146044.75;;;-0.86;90.70
59531;BME280;45349;48.692;8.186;2024-01-15T06:08:48;146048.50;;;-0.84;89.57
59531;BME280;45349;48.692;8.186;2024-01-15T06:11:15;146053.44;;;-0.82;89.63
59531;BME280;45349;48.692;8.186;2024-01-15T06:13:45;146047.22;;;-0.85;88.69
59531;BME280;45349;48.692;8.186;2024-01-15T06:16:13;146063.31;;;-0.78;87.97
59531;BME280;45349;48.692;8.186;2024-01-15T06:18:43;146075.66;;;-0.73;88.42
59531;BME280;45349;48.692;8.186;2024-01-15T06:21:10;146074.41;;;-0.73;88.48
59531;BME280;45349;48.692;8.186;2024-01-15T06:23:39;146080.59;;;-0.71;88.21
59531;BME280;45349;48.692;8.186;2024-01-15T06:26:12;146075.66;;;-0.73;88.41
59531;BME280;45349;48.692;8.186;2024-01-15T06:28:39;146074.41;;;-0.73;87.02
59531;BME280;45349;48.692;8.186;2024-01-15T06:31:06;146075.66;;;-0.73;87.62
59531;BME280;45349;48.692;8.186;2024-01-15T06:33:33;146079.34;;;-0.71;87.33
59531;BME280;45349;48.692;8.186;2024-01-15T06:35:59;146074.41;;;-0.73;86.17
59531;BME280;45349;48.692;8.186;2024-01-15T06:38:26;146074.41;;;-0.73;85.97
59531;BME280;45349;48.692;8.186;2024-01-15T06:40:54;146079.34;;;-0.71;86.24
59531;BME280;45349;48.692;8.186;2024-01-15T06:43:20;146083.09;;;-0.70;84.95
59531;BME280;45349;48.692;8.186;2024-01-15T06:45:47;146083.09;;;-0.70;85.56
59531;BME280;45349;48.692;8.186;2024-01-15T06:48:14;146086.75;;;-0.68;85.74
59531;BME280;45349;48.692;8.186;2024-01-15T06:50:41;146089.22;;;-0.67;84.61
59531;BME280;45349;48.692;8.186;2024-01-15T06:53:08;146105.31;;;-0.61;85.01
59531;BME280;45349;48.692;8.186;2024-01-15T06:55:35;146099.13;;;-0.63;85.12
59531;BME280;45349;48.692;8.186;2024-01-15T06:58:03;146099.13;;;-0.63;85.03
59531;BME280;45349;48.692;8.186;2024-01-15T07:00:29;146110.25;;;-0.58;84.75
59531;BME280;45349;48.692;8.186;2024-01-15T07:02:56;146121.34;;;-0.54;84.58
59531;BME280;45349;48.692;8.186;2024-01-15T07:05:23;146131.25;;;-0.50;83.51
59531;BME280;45349;48.692;8.186;2024-01-15T07:07:50;146141.13;;;-0.46;83.65
59531;BME280;45349;48.692;8.186;2024-01-15T07:10:17;146138.66;;;-0.47;83.32
59531;BME280;45349;48.692;8.186;2024-01-15T07:12:43;146143.59;;;-0.45;82.23
59531;BME280;45349;48.692;8.186;2024-01-15T07:15:11;146144.81;;;-0.44;82.15
59531;BME280;45349;48.692;8.186;2024-01-15T07:17:38;146133.72;;;-0.49;82.09
59531;BME280;45349;48.692;8.186;2024-01-15T07:20:06;146148.53;;;-0.42;82.66
59531;BME280;45349;48.692;8.186;2024-01-15T07:22:33;146151.00;;;-0.41;82.04
59531;BME280;45349;48.692;8.186;2024-01-15T07:25:00;146159.66;;;-0.38;81.91
59531;BME280;45349;48.692;8.186;2024-01-15T07:27:26;146173.25;;;-0.32;80.42
59531;BME280;45349;48.692;8.186;2024-01-15T07:29:53;146173.25;;;-0.32;81.26
59531;BME280;45349;48.692;8.186;2024-01-15T07:32:21;146172.00;;;-0.33;81.45
59531;BME280;45349;48.692;8.186;2024-01-15T07:34:48;146190.56;;;-0.25;80.18
59531;BME280;45349;48.692;8.186;2024-01-15T07:37:15;146191.78;;;-0.24;80.33
59531;BME280;45349;48.692;8.186;2024-01-15T07:39:41;146197.97;;;-0.22;81.22
59531;BME280;45349;48.692;8.186;2024-01-15T07:42:08;146215.28;;;-0.14;80.14
59531;BME280;45349;48.692;8.186;2024-01-15T07:44:34;146223.91;;;-0.11;79.92
59531;BME280;45349;48.692;8.186;2024-01-15T07:47:01;146210.34;;;-0.17;80.30
59531;BME280;45349;48.692;8.186;2024-01-15T07:49:30;146210.34;;;-0.17;81.68
59531;BME280;45349;48.692;8.186;2024-01-15T07:51:57;146199.19;;;-0.21;82.13
59531;BME280;45349;48.692;8.186;2024-01-15T07:54:23;146202.94;;;-0.20;82.49
59531;BME280;45349;48.692;8.186;2024-01-15T07:56:54;146160.91;;;-0.37;85.29
59531;BME280;45349;48.692;8.186;2024-01-15T07:59:20;146147.28;;;-0.43;86.44
59531;BME280;45349;48.692;8.186;2024-01-15T08:01:47;146127.50;;;-0.51;87.53
59531;BME280;45349;48.692;8.186;2024-01-15T08:04:13;146126.31;;;-0.52;87.50
59531;BME280;45349;48.692;8.186;2024-01-15T08:06:41;146111.47;;;-0.58;88.36
59531;BME280;45349;48.692;8.186;2024-01-15T08:09:08;146089.22;;;-0.67;90.19
59531;BME280;45349;48.692;8.186;2024-01-15T08:11:35;146075.66;;;-0.73;90.56
59531;BME280;45349;48.692;8.186;2024-01-15T08:14:02;146060.84;;;-0.79;91.68
59531;BME280;45349;48.692;8.186;2024-01-15T08:16:28;146070.72;;;-0.75;91.83
59531;BME280;45349;48.692;8.186;2024-01-15T08:18:55;146053.44;;;-0.82;92.12
59531;BME280;45349;48.692;8.186;2024-01-15T08:21:21;146060.84;;;-0.79;92.41
59531;BME280;45349;48.692;8.186;2024-01-15T08:23:50;146050.97;;;-0.83;92.64
59531;BME280;45349;48.692;8.186;2024-01-15T08:26:17;146037.34;;;-0.89;93.36
59531;BME280;45349;48.692;8.186;2024-01-15T08:28:45;146037.34;;;-0.89;93.53
59531;BME280;45349;48.692;8.186;2024-01-15T08:31:12;146037.34;;;-0.89;94.78
59531;BME280;45349;48.692;8.186;2024-01-15T08:33:39;146058.38;;;-0.80;94.59
59531;BME280;45349;48.692;8.186;2024-01-15T08:36:05;146080.59;;;-0.71;94.71
59531;BME280;45349;48.692;8.186;2024-01-15T08:38:32;146116.41;;;-0.56;93.04
59531;BME280;45349;48.692;8.186;2024-01-15T08:41:00;146099.13;;;-0.63;93.87
59531;BME280;45349;48.692;8.186;2024-01-15T08:43:27;146126.31;;;-0.52;92.49
59531;BME280;45349;48.692;8.186;2024-01-15T08:45:53;146116.41;;;-0.56;93.35
59531;BME280;45349;48.692;8.186;2024-01-15T08:48:20;146136.19;;;-0.48;93.02
59531;BME280;45349;48.692;8.186;2024-01-15T08:50:46;146126.31;;;-0.52;93.28
59531;BME280;45349;48.692;8.186;2024-01-15T08:53:14;146155.97;;;-0.39;93.10
59531;BME280;45349;48.692;8.186;2024-01-15T08:55:40;146172.00;;;-0.33;92.72
59531;BME280;45349;48.692;8.186;2024-01-15T08:58:10;146167.06;;;-0.35;91.58
59531;BME280;45349;48.692;8.186;2024-01-15T09:00:37;146173.25;;;-0.32;92.01
59531;BME280;45349;48.692;8.186;2024-01-15T09:03:04;146205.41;;;-0.19;91.15
59531;BME280;45349;48.692;8.186;2024-01-15T09:05:31;146217.75;;;-0.13;90.56
59531;BME280;45349;48.692;8.186;2024-01-15T09:07:57;146235.06;;;-0.06;89.92
59531;BME280;45349;48.692;8.186;2024-01-15T09:10:24;146243.69;;;-0.03;90.19
59531;BME280;45349;48.692;8.186;2024-01-15T09:12:51;146238.75;;;-0.05;89.60
59531;BME280;45349;48.692;8.186;2024-01-15T09:15:19;146236.28;;;-0.06;90.82
59531;BME280;45349;48.692;8.186;2024-01-15T09:17:46;146244.94;;;-0.02;91.27
59531;BME280;45349;48.692;8.186;2024-01-15T09:20:12;146270.88;;;0.09;90.18
59531;BME280;45349;48.692;8.186;2024-01-15T09:22:39;146262.22;;;0.05;90.45
59531;BME280;45349;48.692;8.186;2024-01-15T09:25:07;146249.91;;;0.00;91.75
59531;BME280;45349;48.692;8.186;2024-01-15T09:27:36;146232.59;;;-0.07;92.95
59531;BME280;45349;48.692;8.186;2024-01-15T09:30:03;146244.94;;;-0.02;92.94
59531;BME280;45349;48.692;8.186;2024-01-15T09:32:31;146241.22;;;-0.04;92.09
59531;BME280;45349;48.692;8.186;2024-01-15T09:34:58;146231.34;;;-0.08;92.39
59531;BME280;45349;48.692;8.186;2024-01-15T09:37:25;146238.75;;;-0.05;91.52
59531;BME280;45349;48.692;8.186;2024-01-15T09:39:54;146231.34;;;-0.08;92.04
59531;BME280;45349;48.692;8.186;2024-01-15T09:42:21;146223.91;;;-0.11;92.05
59531;BME280;45349;48.692;8.186;2024-01-15T09:44:50;146244.94;;;-0.02;91.08
59531;BME280;45349;48.692;8.186;2024-01-15T09:47:18;146240.00;;;-0.04;90.26
59531;BME280;45349;48.692;8.186;2024-01-15T09:49:47;146264.69;;;0.06;89.26
59531;BME280;45349;48.692;8.186;2024-01-15T09:52:14;146277.06;;;0.11;90.00
59531;BME280;45349;48.692;8.186;2024-01-15T09:54:43;146296.84;;;0.20;90.58
59531;BME280;45349;48.692;8.186;2024-01-15T09:57:10;146295.63;;;0.19;91.17
59531;BME280;45349;48.692;8.186;2024-01-15T09:59:38;146298.09;;;0.20;90.89
59531;BME280;45349;48.692;8.186;2024-01-15T10:02:06;146328.97;;;0.33;91.48
59531;BME280;45349;48.692;8.186;2024-01-15T10:04:33;146319.09;;;0.29;91.85
59531;BME280;45349;48.692;8.186;2024-01-15T10:07:02;146303.03;;;0.22;90.11
59531;BME280;45349;48.692;8.186;2024-01-15T10:09:29;146311.66;;;0.26;89.74
59531;BME280;45349;48.692;8.186;2024-01-15T10:11:56;146295.63;;;0.19;91.78
59531;BME280;45349;48.692;8.186;2024-01-15T10:14:24;146279.53;;;0.12;93.62
59531;BME280;45349;48.692;8.186;2024-01-15T10:16:50;146275.84;;;0.11;94.23
59531;BME280;45349;48.692;8.186;2024-01-15T10:19:17;146272.09;;;0.09;93.65
59531;BME280;45349;48.692;8.186;2024-01-15T10:21:44;146270.88;;;0.09;92.18
59531;BME280;45349;48.692;8.186;2024-01-15T10:24:13;146286.94;;;0.16;92.47
59531;BME280;45349;48.692;8.186;2024-01-15T10:26:40;146289.41;;;0.17;91.36
59531;BME280;45349;48.692;8.186;2024-01-15T10:29:06;146296.84;;;0.20;89.73
59531;BME280;45349;48.692;8.186;2024-01-15T10:31:33;146306.72;;;0.24;91.04
59531;BME280;45349;48.692;8.186;2024-01-15T10:34:10;146316.63;;;0.28;89.29
59531;BME280;45349;48.692;8.186;2024-01-15T10:36:39;146303.03;;;0.22;89.60
59531;BME280;45349;48.692;8.186;2024-01-15T10:39:06;146328.97;;;0.33;88.92
59531;BME280;45349;48.692;8.186;2024-01-15T10:41:34;146332.72;;;0.35;88.12
59531;BME280;45349;48.692;8.186;2024-01-15T10:44:01;146322.81;;;0.31;88.70
59531;BME280;45349;48.692;8.186;2024-01-15T10:46:28;146337.66;;;0.37;86.44
59531;BME280;45349;48.692;8.186;2024-01-15T10:48:56;146332.72;;;0.35;87.85
59531;BME280;45349;48.692;8.186;2024-01-15T10:51:23;146338.88;;;0.37;88.50
59531;BME280;45349;48.692;8.186;2024-01-15T10:53:52;146335.19;;;0.36;88.38
59531;BME280;45349;48.692;8.186;2024-01-15T10:56:21;146350.03;;;0.42;87.94
59531;BME280;45349;48.692;8.186;2024-01-15T10:58:49;146362.38;;;0.47;88.26
59531;BME280;45349;48.692;8.186;2024-01-15T11:01:16;146369.81;;;0.50;89.67
59531;BME280;45349;48.692;8.186;2024-01-15T11:03:47;146373.50;;;0.52;89.67
59531;BME280;45349;48.692;8.186;2024-01-15T11:06:17;146345.06;;;0.40;92.67
59531;BME280;45349;48.692;8.186;2024-01-15T11:08:48;146301.78;;;0.22;93.66
59531;BME280;45349;48.692;8.186;2024-01-15T11:11:16;146301.78;;;0.22;94.45
59531;BME280;45349;48.692;8.186;2024-01-15T11:13:46;146274.56;;;0.10;97.72
59531;BME280;45349;48.692;8.186;2024-01-15T11:16:17;146262.22;;;0.05;100.00
59531;BME280;45349;48.692;8.186;2024-01-15T11:19:02;146256.06;;;0.03;99.48
59531;BME280;45349;48.692;8.186;2024-01-15T11:21:29;146232.59;;;-0.07;100.00
59531;BME280;45349;48.692;8.186;2024-01-15T11:23:57;146243.69;;;-0.03;100.00
59531;BME280;45349;48.692;8.186;2024-01-15T11:26:28;146217.75;;;-0.13;100.00
59531;BME280;45349;48.692;8.186;2024-01-15T11:28:56;146389.56;;;0.58;100.00
59531;BME280;45349;48.692;8.186;2024-01-15T11:31:28;146530.56;;;1.17;100.00
59531;BME280;45349;48.692;8.186;2024-01-15T11:33:54;146383.38;;;0.56;100.00
59531;BME280;45349;48.692;8.186;2024-01-15T11:36:21;146298.09;;;0.20;100.00
59531;BME280;45349;48.692;8.186;2024-01-15T11:38:48;146240.00;;;-0.04;100.00
59531;BME280;45349;48.692;8.186;2024-01-15T11:41:15;146209.09;;;-0.17;100.00
59531;BME280;45349;48.692;8.186;2024-01-15T11:43:46;146180.69;;;-0.29;100.00
59531;BME280;45349;48.692;8.186;2024-01-15T11:46:12;146183.16;;;-0.28;100.00
59531;BME280;45349;48.692;8.186;2024-01-15T11:48:44;146170.78;;;-0.33;100.00
59531;BME280;45349;48.692;8.186;2024-01-15T11:51:11;146167.06;;;-0.35;100.00
59531;BME280;45349;48.692;8.186;2024-01-15T11:53:43;146163.38;;;-0.36;100.00
59531;BME280;45349;48.692;8.186;2024-01-15T11:56:14;146174.47;;;-0.32;100.00
59531;BME280;45349;48.692;8.186;2024-01-15T11:58:46;146184.38;;;-0.27;100.00
59531;BME280;45349;48.692;8.186;2024-01-15T12:01:13;146180.69;;;-0.29;100.00
59531;BME280;45349;48.692;8.186;2024-01-15T12:03:40;146185.63;;;-0.27;100.00
59531;BME280;45349;48.692;8.186;2024-01-15T12:06:08;146184.38;;;-0.27;100.00
59531;BME280;45349;48.692;8.186;2024-01-15T12:08:35;146183.16;;;-0.28;100.00
59531;BME280;45349;48.692;8.186;2024-01-15T12:11:06;146178.22;;;-0.30;100.00
59531;BME280;45349;48.692;8.186;2024-01-15T12:13:33;146168.31;;;-0.34;100.00
59531;BME280;45349;48.692;8.186;2024-01-15T12:16:01;146173.25;;;-0.32;100.00
59531;BME280;45349;48.692;8.186;2024-01-15T12:18:28;146172.00;;;-0.33;100.00
59531;BME280;45349;48.692;8.186;2024-01-15T12:20:55;146185.63;;;-0.27;100.00
59531;BME280;45349;48.692;8.186;2024-01-15T12:23:23;146195.50;;;-0.23;100.00
59531;BME280;45349;48.692;8.186;2024-01-15T12:25:50;146190.56;;;-0.25;100.00
59531;BME280;45349;48.692;8.186;2024-01-15T12:28:17;146180.69;;;-0.29;100.00
59531;BME280;45349;48.692;8.186;2024-01-15T12:30:46;146206.63;;;-0.18;100.00
59531;BME280;45349;48.692;8.186;2024-01-15T12:33:14;146202.94;;;-0.20;100.00
59531;BME280;45349;48.692;8.186;2024-01-15T12:35:41;146199.19;;;-0.21;100.00
59531;BME280;45349;48.692;8.186;2024-01-15T12:38:08;146199.19;;;-0.21;100.00
59531;BME280;45349;48.692;8.186;2024-01-15T12:40:36;146204.13;;;-0.19;100.00
59531;BME280;45349;48.692;8.186;2024-01-15T12:43:03;146210.34;;;-0.17;100.00
59531;BME280;45349;48.692;8.186;2024-01-15T12:45:30;146178.22;;;-0.30;100.00
59531;BME280;45349;48.692;8.186;2024-01-15T12:48:00;146194.25;;;-0.23;100.00
59531;BME280;45349;48.692;8.186;2024-01-15T12:50:28;146186.84;;;-0.26;100.00